Old Union, Mississippi
Current Conditions -  °F | °C
As of 9:53 PM on Sunday 25 Jan 2015 (Local Time) from KTUP Reporting Station
Overcast Overcast  
Wind Chill: 39°   Ceiling: 3100
Heat Index: 45°   Visibility: 10mi
Dew Point: 37°   Wind: 13mph
Humidity: 74%   Direction: 330°NNW
Pressure: 29.86"   Gusts: 22mph
Location:  34.1202°N, 88.7439°W
Report Text: KTUP 260353Z 33011G19KT 280V360 10SM OVC031 07/03 A2986 RMK AO2 SLP111 T00720028
Loading
Personal Weather Stations






























Interactive Weather Map New forecast layout! Learn more

10-Day Weather Forecast

Advertisements
Track Severe Weather on mobile